ENFL/FRO METAR and TAF weather

Enter ICAO airport designator
Station Type Date Time Source
ENFL METAR 2021/05/14 12:50 UTC NOAA

ENFL 141250Z 32011KT 9999 FEW060 BKN080 16/07 Q1004


Station Type Date Time Source
ENFL Decoded METAR 2021/05/14 12:50 UTC NOAA

Floro, Norway (ENFL) 61-35N 005-02E 9M
May 14, 2021 - 08:50 AM EDT / 2021.05.14 1250 UTC
Wind: from the NW (320 degrees) at 13 MPH (11 KT):0
Visibility: greater than 7 mile(s):0
Sky conditions: mostly cloudy
Temperature: 60 F (16 C)
Dew Point: 44 F (7 C)
Relative Humidity: 55%
Pressure (altimeter): 29.65 in. Hg (1004 hPa)
ob: ENFL 141250Z 32011KT 9999 FEW060 BKN080 16/07 Q1004
cycle: 13

Station Type Date Time Source
ENFL TAF 2010/02/05 07:50 UTC NOAA

METAR ENFL 050750Z 16019KT 140V200 9999 FEW015 SCT030 BKN055 03/M03 Q1011

Example: see airport list